createdAt,value
2022-09-01T00:01:44.205Z,100767.69
2022-09-01T00:04:13.566Z,100762.53
2022-09-01T00:06:41.089Z,100732.78
2022-09-01T00:09:15.105Z,100755.81
2022-09-01T00:11:43.821Z,100765.66
2022-09-01T00:14:30.322Z,100766.94
2022-09-01T00:16:59.409Z,100748.09
2022-09-01T00:19:26.379Z,100770.66
2022-09-01T00:21:53.693Z,100768.22
2022-09-01T00:24:20.322Z,100761.47
2022-09-01T00:26:47.379Z,100772.25
2022-09-01T00:29:14.554Z,100766.34
2022-09-01T00:31:41.576Z,100781.34
2022-09-01T00:34:08.306Z,100762.53
2022-09-01T00:36:34.906Z,100769.59
2022-09-01T00:39:04.477Z,100758.34
2022-09-01T00:41:33.986Z,100766.25
2022-09-01T00:44:05.469Z,100758.56
2022-09-01T00:46:47.757Z,100765.50
2022-09-01T00:49:22.118Z,100753.41
2022-09-01T00:51:53.832Z,100764.97
2022-09-01T00:54:27.409Z,100761.63
2022-09-01T00:56:57.662Z,100754.88
2022-09-01T00:59:26.832Z,100756.69
2022-09-01T01:01:54.837Z,100719.91
2022-09-01T01:04:21.498Z,100758.13
2022-09-01T01:06:58.529Z,100753.19
2022-09-01T01:09:29.212Z,100761.19
2022-09-01T01:11:57.766Z,100733.13
2022-09-01T01:14:24.327Z,100721.88
2022-09-01T01:16:52.342Z,100748.66
2022-09-01T01:19:53.502Z,100723.13
2022-09-01T01:22:46.564Z,100756.31
2022-09-01T01:25:13.631Z,100747.75
2022-09-01T01:27:43.684Z,100742.50
2022-09-01T01:30:12.686Z,100721.34
2022-09-01T01:32:43.261Z,100742.16
2022-09-01T01:35:14.973Z,100740.72
2022-09-01T01:37:46.555Z,100741.09
2022-09-01T01:40:17.039Z,100735.94
2022-09-01T01:42:46.067Z,100742.16
2022-09-01T01:45:17.383Z,100716.22
2022-09-01T01:47:53.483Z,100734.13
2022-09-01T01:50:25.285Z,100742.16
2022-09-01T01:52:58.347Z,100737.31
2022-09-01T01:55:28.743Z,100709.00
2022-09-01T01:57:56.448Z,100739.03
2022-09-01T02:00:30.547Z,100731.31
2022-09-01T02:02:58.402Z,100735.69
2022-09-01T02:05:32.297Z,100733.13
2022-09-01T02:08:05.664Z,100738.75
2022-09-01T02:10:35.887Z,100740.78
2022-09-01T02:13:07.116Z,100741.53
2022-09-01T02:15:40.023Z,100733.53
2022-09-01T02:18:06.592Z,100729.41
2022-09-01T02:20:33.182Z,100708.84
2022-09-01T02:23:09.386Z,100711.50
2022-09-01T02:25:49.304Z,100720.94
2022-09-01T02:28:24.560Z,100696.38
2022-09-01T02:30:55.195Z,100708.75
2022-09-01T02:33:22.746Z,100728.50
2022-09-01T02:35:53.948Z,100727.63
2022-09-01T02:38:23.985Z,100728.75
2022-09-01T02:40:50.663Z,100728.75
2022-09-01T02:43:20.648Z,100732.00
2022-09-01T02:45:52.932Z,100720.84
2022-09-01T02:48:22.673Z,100700.41
2022-09-01T02:50:49.722Z,100720.94
2022-09-01T02:53:16.699Z,100715.78
2022-09-01T02:55:43.720Z,100718.25
2022-09-01T02:58:13.460Z,100713.31
2022-09-01T03:00:41.660Z,100703.00
2022-09-01T03:03:08.246Z,100704.63
2022-09-01T03:05:36.157Z,100723.41
2022-09-01T03:08:05.585Z,100697.47
2022-09-01T03:10:37.978Z,100722.53
2022-09-01T03:13:09.626Z,100700.06
2022-09-01T03:15:37.289Z,100719.38
2022-09-01T03:18:05.666Z,100717.97
2022-09-01T03:20:34.317Z,100713.75
2022-09-01T03:23:01.652Z,100710.25
2022-09-01T03:25:29.858Z,100694.81
2022-09-01T03:28:03.044Z,100706.44
2022-09-01T03:30:32.777Z,100712.72
2022-09-01T03:33:00.863Z,100719.09
2022-09-01T03:35:28.571Z,100713.06
2022-09-01T03:37:59.112Z,100714.28
2022-09-01T03:40:27.956Z,100717.19
2022-09-01T03:42:55.746Z,100717.25
2022-09-01T03:45:25.687Z,100712.28
2022-09-01T03:47:54.451Z,100709.72
2022-09-01T03:50:25.162Z,100713.41
2022-09-01T03:52:54.353Z,100710.56
2022-09-01T03:55:25.600Z,100708.94
2022-09-01T03:57:57.661Z,100699.69
2022-09-01T04:00:30.012Z,100704.47
2022-09-01T04:02:59.255Z,100703.53
2022-09-01T04:05:28.844Z,100705.25
2022-09-01T04:08:02.664Z,100712.09
2022-09-01T04:10:32.565Z,100695.81
2022-09-01T04:13:02.853Z,100698.09
2022-09-01T04:15:29.705Z,100703.53
2022-09-01T04:18:09.007Z,100707.81
2022-09-01T04:20:48.365Z,100697.72
2022-09-01T04:23:26.638Z,100708.09
2022-09-01T04:25:57.038Z,100709.81
2022-09-01T04:28:31.088Z,100716.94
2022-09-01T04:30:58.581Z,100696.44
2022-09-01T04:33:27.596Z,100714.56
2022-09-01T04:35:56.908Z,100693.09
2022-09-01T04:38:24.933Z,100723.13
2022-09-01T04:40:52.556Z,100716.09
2022-09-01T04:43:19.348Z,100714.38
2022-09-01T04:45:46.797Z,100721.53
2022-09-01T04:48:13.413Z,100721.63
2022-09-01T04:50:41.045Z,100724.19
2022-09-01T04:53:11.995Z,100689.00
2022-09-01T04:55:41.267Z,100723.34
2022-09-01T04:58:10.206Z,100713.72
2022-09-01T05:00:37.040Z,100721.53
2022-09-01T05:03:04.822Z,100717.03
2022-09-01T05:05:44.358Z,100719.53
2022-09-01T05:08:23.203Z,100725.63
2022-09-01T05:10:55.715Z,100704.00
2022-09-01T05:13:23.631Z,100722.97
2022-09-01T05:16:02.073Z,100727.16
2022-09-01T05:18:29.362Z,100721.75
2022-09-01T05:20:57.493Z,100723.84
2022-09-01T05:23:26.492Z,100724.59
2022-09-01T05:25:55.281Z,100732.16
2022-09-01T05:28:27.127Z,100737.09
2022-09-01T05:30:54.390Z,100735.69
2022-09-01T05:33:22.099Z,100742.09
2022-09-01T05:36:01.298Z,100744.19
2022-09-01T05:38:31.625Z,100738.97
2022-09-01T05:41:04.135Z,100733.91
2022-09-01T05:43:32.512Z,100724.84
2022-09-01T05:46:07.035Z,100745.50
2022-09-01T05:48:36.249Z,100713.97
2022-09-01T05:51:17.689Z,100744.72
2022-09-01T05:53:58.851Z,100740.72
2022-09-01T05:56:27.672Z,100739.97
2022-09-01T06:01:43.873Z,100735.53
2022-09-01T06:04:13.785Z,100738.38
2022-09-01T06:07:05.567Z,100731.75
2022-09-01T06:09:33.808Z,100739.84
2022-09-01T06:12:01.939Z,100732.44
2022-09-01T06:14:28.610Z,100724.53
2022-09-01T06:16:56.540Z,100749.78
2022-09-01T06:19:23.193Z,100744.53
2022-09-01T06:21:50.080Z,100724.53
2022-09-01T06:24:17.981Z,100737.00
2022-09-01T06:26:46.452Z,100756.63
2022-09-01T06:29:15.485Z,100751.28
2022-09-01T06:31:43.372Z,100751.28
2022-09-01T06:34:17.664Z,100767.66
2022-09-01T06:36:46.046Z,100752.84
2022-09-01T06:39:19.891Z,100764.19
2022-09-01T06:41:53.380Z,100757.38
2022-09-01T06:44:23.298Z,100766.31
2022-09-01T06:46:51.708Z,100746.84
2022-09-01T06:49:23.612Z,100762.44
2022-09-01T06:51:52.738Z,100771.03
2022-09-01T06:54:21.151Z,100761.84
2022-09-01T06:56:51.854Z,100765.06
2022-09-01T06:59:20.980Z,100737.44
2022-09-01T07:01:49.359Z,100763.47
2022-09-01T07:04:20.309Z,100752.63
2022-09-01T07:12:30.195Z,100763.19
2022-09-01T07:17:52.513Z,100772.69
2022-09-01T07:20:29.358Z,100761.34
2022-09-01T07:23:06.488Z,100770.41
2022-09-01T07:28:39.858Z,100774.91
2022-09-01T07:34:37.669Z,100768.31
2022-09-01T07:39:48.741Z,100754.06
2022-09-01T07:42:30.103Z,100758.59
2022-09-01T07:45:27.588Z,100765.03
2022-09-01T07:47:55.401Z,100774.22
2022-09-01T07:50:39.778Z,100781.19
2022-09-01T07:53:09.232Z,100758.81
2022-09-01T07:55:40.375Z,100789.06
2022-09-01T07:58:06.914Z,100787.75
2022-09-01T08:00:34.361Z,100766.72
2022-09-01T08:03:01.433Z,100771.13
2022-09-01T08:05:28.964Z,100784.78
2022-09-01T08:07:55.625Z,100782.69
2022-09-01T08:10:22.815Z,100787.59
2022-09-01T08:12:57.346Z,100771.25
2022-09-01T08:16:06.477Z,100790.53
2022-09-01T08:18:14.464Z,100779.06
2022-09-01T08:20:47.282Z,100799.91
2022-09-01T08:23:18.506Z,100782.06
2022-09-01T08:25:47.427Z,100798.34
2022-09-01T08:28:15.246Z,100789.84
2022-09-01T08:30:49.125Z,100795.97
2022-09-01T08:33:19.476Z,100771.53
2022-09-01T08:35:49.023Z,100798.66
2022-09-01T08:38:15.819Z,100799.56
2022-09-01T08:40:56.402Z,100793.19
2022-09-01T08:43:57.919Z,100795.97
2022-09-01T08:46:31.599Z,100795.69
2022-09-01T08:52:20.756Z,100793.88
2022-09-01T08:54:50.121Z,100788.44
2022-09-01T08:57:40.730Z,100758.28
2022-09-01T09:00:13.984Z,100792.78
2022-09-01T09:02:57.079Z,100774.69
2022-09-01T09:05:50.857Z,100790.00
2022-09-01T09:08:35.383Z,100782.06
2022-09-01T09:11:06.592Z,100774.94
2022-09-01T09:13:58.891Z,100790.59
2022-09-01T09:16:31.233Z,100782.88
2022-09-01T09:19:04.222Z,100787.06
2022-09-01T09:21:37.465Z,100789.63
2022-09-01T09:24:22.640Z,100784.25
2022-09-01T09:26:56.182Z,100780.47
2022-09-01T09:29:23.361Z,100756.28
2022-09-01T09:32:02.503Z,100765.44
2022-09-01T09:34:41.229Z,100768.13
2022-09-01T09:37:30.227Z,100767.78
2022-09-01T09:40:15.221Z,100763.72
2022-09-01T09:43:04.680Z,100750.69
2022-09-01T09:45:35.882Z,100766.13
2022-09-01T09:48:26.197Z,100748.59
2022-09-01T09:50:52.898Z,100728.16
2022-09-01T09:53:30.134Z,100750.50
2022-09-01T09:56:04.418Z,100725.06
2022-09-01T09:58:50.059Z,100724.66
2022-09-01T10:01:38.916Z,100740.38
2022-09-01T10:04:06.355Z,100731.84
2022-09-01T10:06:42.041Z,100713.91
2022-09-01T10:09:16.026Z,100740.69
2022-09-01T10:11:45.417Z,100740.84
2022-09-01T10:14:51.784Z,100704.66
2022-09-01T10:17:13.395Z,100719.88
2022-09-01T10:19:51.025Z,100720.03
2022-09-01T10:22:17.905Z,100721.03
2022-09-01T10:24:45.892Z,100719.75
2022-09-01T10:27:23.660Z,100690.78
2022-09-01T10:32:57.496Z,100712.22
2022-09-01T10:35:34.712Z,100716.63
2022-09-01T10:38:12.224Z,100726.13
2022-09-01T10:40:43.664Z,100720.69
2022-09-01T10:43:38.583Z,100706.56
2022-09-01T10:46:38.781Z,100692.34
2022-09-01T10:49:33.647Z,100714.28
2022-09-01T10:52:11.318Z,100713.31
2022-09-01T10:54:50.835Z,100710.34
2022-09-01T10:57:30.630Z,100711.00
2022-09-01T11:00:40.393Z,100684.09
2022-09-01T11:06:13.122Z,100700.91
2022-09-01T11:08:46.732Z,100678.59
2022-09-01T11:11:47.493Z,100699.91
2022-09-01T11:14:22.856Z,100685.19
2022-09-01T11:17:14.421Z,100682.09
2022-09-01T11:20:06.433Z,100672.97
2022-09-01T11:22:43.326Z,100684.91
2022-09-01T11:25:38.705Z,100693.41
2022-09-01T11:28:31.806Z,100685.84
2022-09-01T11:31:08.408Z,100687.91
2022-09-01T11:33:44.236Z,100688.00
2022-09-01T11:36:36.670Z,100659.38
2022-09-01T11:39:19.059Z,100662.19
2022-09-01T11:41:59.704Z,100674.47
2022-09-01T11:44:33.931Z,100668.59
2022-09-01T11:47:10.788Z,100651.25
2022-09-01T11:49:49.161Z,100660.31
2022-09-01T11:52:18.532Z,100667.09
2022-09-01T11:54:48.439Z,100643.03
2022-09-01T11:57:38.762Z,100660.56
2022-09-01T12:00:12.987Z,100653.69
2022-09-01T12:02:51.582Z,100656.34
2022-09-01T12:05:32.021Z,100631.97
2022-09-01T12:08:00.515Z,100657.38
2022-09-01T12:10:27.491Z,100659.16
2022-09-01T12:13:18.746Z,100625.75
2022-09-01T12:16:17.069Z,100630.94
2022-09-01T12:18:48.371Z,100636.28
2022-09-01T12:21:22.939Z,100635.75
2022-09-01T12:23:49.831Z,100627.34
2022-09-01T12:26:23.563Z,100628.13
2022-09-01T12:28:51.000Z,100621.09
2022-09-01T12:31:32.626Z,100605.44
2022-09-01T12:33:59.395Z,100607.69
2022-09-01T12:36:33.378Z,100611.41
2022-09-01T12:39:25.596Z,100609.19
2022-09-01T12:42:06.555Z,100615.75
2022-09-01T12:44:47.979Z,100615.75
2022-09-01T12:47:37.804Z,100616.75
2022-09-01T12:50:29.718Z,100616.97
2022-09-01T12:53:01.830Z,100614.00
2022-09-01T12:55:53.616Z,100614.53
2022-09-01T12:58:24.038Z,100602.19
2022-09-01T13:01:01.766Z,100582.94
2022-09-01T13:03:29.677Z,100593.38
2022-09-01T13:05:59.912Z,100596.44
2022-09-01T13:08:30.965Z,100599.59
2022-09-01T13:11:07.412Z,100594.66
2022-09-01T13:13:37.463Z,100592.56
2022-09-01T13:16:08.581Z,100585.94
2022-09-01T13:19:10.569Z,100588.94
2022-09-01T13:21:21.885Z,100587.63
2022-09-01T13:23:51.261Z,100567.56
2022-09-01T13:26:17.868Z,100579.63
2022-09-01T13:28:46.011Z,100553.09
2022-09-01T13:31:30.251Z,100571.38
2022-09-01T13:34:22.287Z,100573.84
2022-09-01T13:36:50.848Z,100573.53
2022-09-01T13:39:20.261Z,100578.28
2022-09-01T13:41:47.584Z,100573.31
2022-09-01T13:44:14.701Z,100574.84
2022-09-01T13:50:05.105Z,100576.56
2022-09-01T13:52:15.027Z,100574.16
2022-09-01T13:54:44.390Z,100564.25
2022-09-01T13:57:11.725Z,100552.06
2022-09-01T13:59:39.147Z,100534.94
2022-09-01T14:02:06.252Z,100560.72
2022-09-01T14:04:33.053Z,100533.84
2022-09-01T14:06:59.832Z,100532.31
2022-09-01T14:09:26.591Z,100541.09
2022-09-01T14:11:54.515Z,100550.78
2022-09-01T14:14:22.036Z,100517.38
2022-09-01T14:16:49.435Z,100531.13
2022-09-01T14:19:16.079Z,100514.50
2022-09-01T14:21:43.011Z,100546.09
2022-09-01T14:24:09.661Z,100530.47
2022-09-01T14:26:36.292Z,100546.47
2022-09-01T14:29:02.924Z,100524.94
2022-09-01T14:31:30.273Z,100510.81
2022-09-01T14:33:57.126Z,100533.56
2022-09-01T14:36:25.595Z,100533.31
2022-09-01T14:38:53.454Z,100537.91
2022-09-01T14:41:23.953Z,100533.94
2022-09-01T14:43:55.071Z,100541.00
2022-09-01T14:46:23.652Z,100537.59
2022-09-01T14:48:50.868Z,100533.72
2022-09-01T14:52:09.747Z,100534.19
2022-09-01T14:54:13.561Z,100535.22
2022-09-01T14:56:41.931Z,100515.38
2022-09-01T14:59:08.908Z,100520.16
2022-09-01T15:01:35.732Z,100512.81
2022-09-01T15:04:02.749Z,100515.31
2022-09-01T15:06:29.355Z,100518.16
2022-09-01T15:08:55.981Z,100494.59
2022-09-01T15:11:22.649Z,100516.81
2022-09-01T15:13:52.208Z,100498.06
2022-09-01T15:16:23.735Z,100516.03
2022-09-01T15:18:51.313Z,100495.78
2022-09-01T15:21:30.721Z,100496.09
2022-09-01T15:23:57.727Z,100495.09
2022-09-01T15:26:24.405Z,100496.34
2022-09-01T15:28:51.228Z,100498.72
2022-09-01T15:31:19.896Z,100491.78
2022-09-01T15:34:01.332Z,100492.19
2022-09-01T15:36:29.304Z,100484.91
2022-09-01T15:38:57.076Z,100495.31
2022-09-01T15:41:26.938Z,100497.53
2022-09-01T15:43:53.727Z,100496.84
2022-09-01T15:46:21.293Z,100494.69
2022-09-01T15:48:48.231Z,100489.28
2022-09-01T15:51:23.905Z,100494.97
2022-09-01T15:53:52.305Z,100485.50
2022-09-01T15:56:18.925Z,100484.44
2022-09-01T15:59:00.825Z,100494.63
2022-09-01T16:01:29.353Z,100495.09
2022-09-01T16:03:56.881Z,100473.47
2022-09-01T16:06:23.703Z,100480.97
2022-09-01T16:08:51.382Z,100463.72
2022-09-01T16:11:17.998Z,100494.28
2022-09-01T16:13:44.589Z,100492.25
2022-09-01T16:16:48.870Z,100484.44
2022-09-01T16:19:37.133Z,100469.47
2022-09-01T16:22:29.810Z,100485.44
2022-09-01T16:25:01.896Z,100487.50
2022-09-01T16:27:33.634Z,100491.53
2022-09-01T16:30:27.255Z,100477.59
2022-09-01T16:32:56.797Z,100485.88
2022-09-01T16:35:35.929Z,100451.44
2022-09-01T16:38:33.908Z,100474.88
2022-09-01T16:41:16.414Z,100481.97
2022-09-01T16:44:15.802Z,100479.28
2022-09-01T16:47:14.423Z,100464.97
2022-09-01T16:50:05.264Z,100447.00
2022-09-01T16:52:53.766Z,100475.72
2022-09-01T16:55:55.973Z,100473.16
2022-09-01T16:58:44.552Z,100453.97
2022-09-01T17:01:30.260Z,100465.47
2022-09-01T17:04:02.153Z,100459.00
2022-09-01T17:06:45.637Z,100466.59
2022-09-01T17:09:25.563Z,100465.22
2022-09-01T17:11:58.033Z,100463.69
2022-09-01T17:14:37.170Z,100459.91
2022-09-01T17:17:19.845Z,100444.25
2022-09-01T17:19:52.090Z,100448.97
2022-09-01T17:22:22.896Z,100441.41
2022-09-01T17:24:56.804Z,100455.16
2022-09-01T17:27:51.709Z,100457.78
2022-09-01T17:30:18.912Z,100469.25
2022-09-01T17:33:17.603Z,100465.63
2022-09-01T17:36:33.481Z,100465.44
2022-09-01T17:39:15.945Z,100452.75
2022-09-01T17:41:52.771Z,100467.66
2022-09-01T17:44:30.821Z,100472.13
2022-09-01T17:47:16.030Z,100473.75
2022-09-01T17:49:45.398Z,100467.44
2022-09-01T17:52:52.728Z,100476.94
2022-09-01T17:55:25.748Z,100478.44
2022-09-01T17:58:20.886Z,100452.94
2022-09-01T18:01:09.966Z,100469.81
2022-09-01T18:03:52.136Z,100465.47
2022-09-01T18:06:41.850Z,100464.16
2022-09-01T18:09:12.048Z,100471.00
2022-09-01T18:11:51.745Z,100474.69
2022-09-01T18:14:24.201Z,100481.00
2022-09-01T18:17:15.051Z,100477.50
2022-09-01T18:19:45.588Z,100492.53
2022-09-01T18:22:21.511Z,100482.78
2022-09-01T18:24:52.212Z,100483.78
2022-09-01T18:27:18.872Z,100475.03
2022-09-01T18:29:51.611Z,100483.72
2022-09-01T18:32:43.456Z,100509.53
2022-09-01T18:35:13.328Z,100506.28
2022-09-01T18:37:42.830Z,100512.97
2022-09-01T18:40:21.413Z,100509.00
2022-09-01T18:43:16.722Z,100515.84
2022-09-01T18:45:57.725Z,100500.50
2022-09-01T18:49:01.888Z,100513.97
2022-09-01T18:51:57.125Z,100518.38
2022-09-01T18:54:38.522Z,100509.53
2022-09-01T18:57:07.246Z,100496.47
2022-09-01T18:59:52.983Z,100515.78
2022-09-01T19:02:44.943Z,100518.75
2022-09-01T19:05:19.876Z,100518.34
2022-09-01T19:08:00.135Z,100521.72
2022-09-01T19:10:34.938Z,100516.75
2022-09-01T19:13:13.762Z,100523.84
2022-09-01T19:15:42.902Z,100525.25
2022-09-01T19:18:18.356Z,100509.47
2022-09-01T19:21:17.016Z,100534.88
2022-09-01T19:23:59.302Z,100507.75
2022-09-01T19:26:27.326Z,100538.38
2022-09-01T19:29:00.110Z,100515.75
2022-09-01T19:31:28.241Z,100534.91
2022-09-01T19:33:59.050Z,100529.06
2022-09-01T19:36:39.304Z,100538.44
2022-09-01T19:39:09.537Z,100541.38
2022-09-01T19:41:43.303Z,100509.53
2022-09-01T19:44:19.773Z,100545.88
2022-09-01T19:46:52.135Z,100537.34
2022-09-01T19:49:43.796Z,100510.00
2022-09-01T19:52:34.473Z,100539.56
2022-09-01T19:55:06.231Z,100539.09
2022-09-01T19:57:40.072Z,100538.38
2022-09-01T20:00:18.148Z,100544.88
2022-09-01T20:03:12.581Z,100553.06
2022-09-01T20:05:50.319Z,100547.13
2022-09-01T20:08:33.523Z,100530.16
2022-09-01T20:11:39.686Z,100558.28
2022-09-01T20:14:33.785Z,100548.88
2022-09-01T20:17:04.426Z,100553.66
2022-09-01T20:19:39.620Z,100539.66
2022-09-01T20:22:35.400Z,100553.22
2022-09-01T20:25:10.623Z,100537.50
2022-09-01T20:27:43.666Z,100552.63
2022-09-01T20:30:12.290Z,100565.69
2022-09-01T20:32:38.777Z,100563.00
2022-09-01T20:35:15.786Z,100562.28
2022-09-01T20:37:56.634Z,100545.44
2022-09-01T20:40:41.194Z,100564.09
2022-09-01T20:43:14.113Z,100568.63
2022-09-01T20:45:40.993Z,100555.94
2022-09-01T20:48:19.002Z,100564.47
2022-09-01T20:50:56.658Z,100569.63
2022-09-01T20:54:03.133Z,100552.41
2022-09-01T20:56:47.685Z,100575.00
2022-09-01T20:59:41.999Z,100573.28
2022-09-01T21:02:46.095Z,100578.53
2022-09-01T21:05:26.292Z,100577.69
2022-09-01T21:08:14.104Z,100576.69
2022-09-01T21:11:17.488Z,100577.44
2022-09-01T21:14:31.501Z,100572.31
2022-09-01T21:16:58.257Z,100578.66
2022-09-01T21:20:08.467Z,100579.66
2022-09-01T21:22:35.368Z,100579.75
2022-09-01T21:25:02.191Z,100573.75
2022-09-01T21:27:36.921Z,100566.22
2022-09-01T21:30:07.542Z,100578.44
2022-09-01T21:32:35.054Z,100570.63
2022-09-01T21:35:02.869Z,100567.34
2022-09-01T21:37:30.079Z,100566.75
2022-09-01T21:39:58.222Z,100563.59
2022-09-01T21:42:30.462Z,100565.69
2022-09-01T21:44:58.469Z,100579.13
2022-09-01T21:47:26.561Z,100563.97
2022-09-01T21:49:53.126Z,100558.00
2022-09-01T21:52:19.684Z,100572.41
2022-09-01T21:54:46.251Z,100560.50
2022-09-01T21:57:12.988Z,100541.13
2022-09-01T21:59:39.572Z,100558.69
2022-09-01T22:02:09.186Z,100554.41
2022-09-01T22:04:37.586Z,100567.16
2022-09-01T22:07:06.275Z,100555.66
2022-09-01T22:09:32.883Z,100542.63
2022-09-01T22:11:59.426Z,100562.63
2022-09-01T22:14:27.804Z,100555.09
2022-09-01T22:16:54.520Z,100538.53
2022-09-01T22:19:21.366Z,100539.59
2022-09-01T22:21:48.097Z,100556.69
2022-09-01T22:24:19.097Z,100553.38
2022-09-01T22:26:47.789Z,100553.88
2022-09-01T22:29:15.629Z,100538.78
2022-09-01T22:31:42.121Z,100549.13
2022-09-01T22:34:08.712Z,100536.47
2022-09-01T22:36:42.413Z,100552.69
2022-09-01T22:39:11.169Z,100551.56
2022-09-01T22:41:39.549Z,100537.31
2022-09-01T22:44:07.345Z,100559.91
2022-09-01T22:46:35.628Z,100537.94
2022-09-01T22:49:02.841Z,100556.72
2022-09-01T22:51:30.160Z,100544.53
2022-09-01T22:53:56.680Z,100533.53
2022-09-01T22:56:32.201Z,100556.22
2022-09-01T22:59:02.645Z,100536.84
2022-09-01T23:01:31.643Z,100558.41
2022-09-01T23:04:01.734Z,100549.91
2022-09-01T23:06:29.832Z,100561.72
2022-09-01T23:08:57.847Z,100546.47
2022-09-01T23:11:25.411Z,100541.69
2022-09-01T23:13:52.689Z,100553.03
2022-09-01T23:16:20.718Z,100544.50
2022-09-01T23:18:49.474Z,100551.56
2022-09-01T23:21:19.911Z,100555.56
2022-09-01T23:23:46.562Z,100554.09
2022-09-01T23:26:14.494Z,100554.31
2022-09-01T23:28:42.441Z,100544.91
2022-09-01T23:31:19.085Z,100552.84
2022-09-01T23:33:45.984Z,100549.53
2022-09-01T23:36:14.751Z,100553.69
2022-09-01T23:38:41.780Z,100545.88
2022-09-01T23:41:15.887Z,100545.25
2022-09-01T23:43:42.674Z,100534.50
2022-09-01T23:46:17.615Z,100541.56
2022-09-01T23:48:44.252Z,100545.88
2022-09-01T23:51:11.457Z,100545.06
2022-09-01T23:53:38.931Z,100543.59
2022-09-01T23:56:14.942Z,100544.66
2022-09-01T23:58:42.129Z,100541.47
